Latest Weather Observations for Kangaroo Flats (Defence)

IDD60801

Issued at 8:21 pm CST Wednesday 19 September 2018 (issued every 10 minutes, with the page automatically refreshed every 10 minutes)

About weather observations | Map of weather stations | Latest weather observations for NT | Other Formats
Station Details ID: 014982 Name: KANGAROO FLATS (DEFENCE) Lat: -12.79 Lon: 130.85 Height: 50.0 m
Data from the previous 72 hours. | See also: Recent months at Kangaroo Flats (Defence)
Date/Time
CST
Temp
°C
App
Temp
°C
Dew
Point
°C
Rel
Hum
%
Delta-T
°C
Wind Press
QNH
hPa
Press
MSL
hPa
Rain since
9am
mm
Dir  Spd
km/h
Gust
km/h
Spd
kts
Gust
kts
19/08:00pm 28.0 32.0 22.0 70 4.0 W 4 9 2 5 - - 0.0
19/07:30pm 28.5 31.7 21.3 65 4.8 NW 6 13 3 7 - - 0.0
19/07:00pm 29.3 32.0 20.2 58 6.0 NW 6 11 3 6 - - 0.0
19/06:30pm 30.1 32.2 20.1 55 6.6 NW 9 19 5 10 - - 0.0
19/06:00pm 30.9 32.6 20.2 53 7.1 NW 11 19 6 10 - - 0.0
19/05:30pm 31.5 32.9 20.4 51 7.4 NW 13 24 7 13 - - 0.0
19/05:00pm 32.4 34.1 21.0 51 7.7 NW 13 24 7 13 - - 0.0
19/04:30pm 33.0 34.9 20.5 47 8.4 NW 11 20 6 11 - - 0.0
19/04:00pm 37.0 35.0 8.8 18 16.2 E 9 17 5 9 - - 0.0
19/03:30pm 36.8 35.4 9.4 19 15.9 E 7 17 4 9 - - 0.0
19/03:00pm 36.8 35.0 9.4 19 15.9 E 9 19 5 10 - - 0.0
19/02:30pm 36.9 34.7 9.5 19 15.9 E 11 24 6 13 - - 0.0
19/02:00pm 35.9 34.7 10.2 21 15.0 ENE 7 15 4 8 - - 0.0
19/01:30pm 36.0 35.0 10.9 22 14.8 ENE 7 17 4 9 - - 0.0
19/01:00pm 35.9 33.3 6.2 16 16.3 SE 9 24 5 13 - - 0.0
19/12:30pm 33.6 33.9 14.6 31 11.7 SSE 6 20 3 11 - - 0.0
19/12:00pm 34.2 35.6 16.5 34 11.2 W 4 9 2 5 - - 0.0
19/11:30am 33.0 34.2 16.8 38 10.3 S 6 11 3 6 - - 0.0
19/11:00am 32.3 34.3 18.8 44 8.8 N 6 11 3 6 - - 0.0
19/10:30am 31.4 34.0 20.0 50 7.5 SW 6 13 3 7 - - 0.0
19/10:00am 29.8 32.1 19.5 54 6.7 SSW 6 11 3 6 - - 0.0
19/09:30am 29.5 31.7 20.4 58 6.0 WSW 9 15 5 8 - - 0.0
19/09:00am 28.4 31.9 21.9 68 4.4 WSW 6 9 3 5 - - 0.0
19/08:30am 26.7 30.3 22.1 76 3.1 WSW 6 9 3 5 - - 0.0
19/08:00am 25.6 30.6 22.5 83 2.1 CALM 0 0 0 0 - - 0.0
19/07:30am 22.6 27.3 21.9 96 0.5 CALM 0 4 0 2 - - 0.0
19/07:00am 21.4 25.5 20.7 96 0.5 CALM 0 0 0 0 - - 0.0
19/06:30am 21.3 25.3 20.5 95 0.5 CALM 0 0 0 0 - - 0.0
19/06:00am 21.4 25.3 20.4 94 0.6 CALM 0 0 0 0 - - 0.0
19/05:30am 21.5 25.5 20.5 94 0.6 CALM 0 0 0 0 - - 0.0
19/05:00am 21.7 25.8 20.7 94 0.6 CALM 0 0 0 0 - - 0.0
19/04:30am 22.2 26.4 21.0 93 0.8 CALM 0 0 0 0 - - 0.0
19/04:00am 22.4 26.3 21.2 93 0.8 N 2 2 1 1 - - 0.0
19/03:30am 22.4 26.6 21.0 92 0.9 CALM 0 4 0 2 - - 0.0
19/03:00am 22.8 27.2 21.3 91 1.0 CALM 0 0 0 0 - - 0.0
19/02:30am 23.1 27.4 21.2 89 1.2 CALM 0 0 0 0 - - 0.0
19/02:00am 23.4 27.8 21.3 88 1.4 CALM 0 0 0 0 - - 0.0
19/01:30am 23.8 28.2 21.3 86 1.6 CALM 0 0 0 0 - - 0.0
19/01:00am 24.5 28.7 21.8 85 1.8 N 2 4 1 2 - - 0.0
19/12:30am 24.6 29.2 21.7 84 1.9 CALM 0 0 0 0 - - 0.0
19/12:00am 24.9 28.7 21.6 82 2.2 N 4 6 2 3 - - 0.0
 
Date/Time
CST
Temp
°C
App
Temp
°C
Dew
Point
°C
Rel
Hum
%
Delta-T
°C
Wind Press
QNH
hPa
Press
MSL
hPa
Rain since
9am
mm
Dir  Spd
km/h
Gust
km/h
Spd
kts
Gust
kts
18/11:30pm 25.3 29.1 21.6 80 2.5 NW 4 7 2 4 - - 0.0
18/11:00pm 26.1 30.2 21.5 76 3.1 SSW 2 6 1 3 - - 0.0
18/10:30pm 26.5 30.4 21.9 76 3.1 SSW 4 9 2 5 - - 0.0
18/10:00pm 26.2 30.1 21.8 77 2.9 SW 4 7 2 4 - - 0.0
18/09:30pm 26.5 30.4 21.9 76 3.1 SW 4 6 2 3 - - 0.0
18/09:00pm 26.9 30.5 22.1 75 3.2 WSW 6 11 3 6 - - 0.0
18/08:30pm 27.3 30.3 21.3 69 4.0 WSW 7 13 4 7 - - 0.0
18/08:00pm 27.8 30.6 20.9 66 4.6 WSW 7 17 4 9 - - 0.0
18/07:30pm 28.3 31.1 20.8 63 5.0 WSW 7 20 4 11 - - 0.0
18/07:00pm 29.3 31.6 19.9 57 6.2 W 7 17 4 9 - - 0.0
18/06:30pm 30.0 32.4 20.0 55 6.6 W 7 17 4 9 - - 0.0
18/06:00pm 30.7 31.9 19.1 50 7.6 WNW 11 22 6 12 - - 0.0
18/05:30pm 31.6 32.2 18.6 46 8.4 WNW 13 22 7 12 - - 0.0
18/05:00pm 32.5 33.3 19.0 44 8.8 WNW 13 24 7 13 - - 0.0
18/04:30pm 33.2 33.4 18.6 42 9.5 WNW 15 24 8 13 - - 0.0
18/04:00pm 37.5 34.9 3.3 12 18.1 NE 6 15 3 8 - - 0.0
18/03:30pm 37.6 35.3 5.6 14 17.5 SE 7 20 4 11 - - 0.0
18/03:00pm 37.6 35.3 5.6 14 17.5 E 7 15 4 8 - - 0.0
18/02:30pm 36.9 34.1 5.0 14 17.3 ESE 9 24 5 13 - - 0.0
18/02:00pm 36.7 33.3 3.8 13 17.5 ESE 11 24 6 13 - - 0.0
18/01:30pm 36.7 33.8 4.9 14 17.2 ESE 9 24 5 13 - - 0.0
18/01:00pm 36.5 34.0 8.4 18 16.0 ENE 11 24 6 13 - - 0.0
18/12:30pm 35.1 33.7 10.9 23 14.2 ESE 9 17 5 9 - - 0.0
18/12:00pm 35.1 33.7 10.9 23 14.2 ENE 9 20 5 11 - - 0.0
18/11:30am 34.5 33.1 11.0 24 13.8 NE 9 24 5 13 - - 0.0
18/11:00am 33.9 32.9 12.3 27 12.9 NE 9 19 5 10 - - 0.0
18/10:30am 31.9 32.6 16.2 38 9.9 NE 7 13 4 7 - - 0.0
18/10:00am 30.7 32.5 18.8 49 7.7 N 7 13 4 7 - - 0.0
18/09:30am 29.7 32.1 19.7 55 6.6 NE 6 9 3 5 - - 0.0
18/09:00am 28.3 32.9 21.8 68 4.4 CALM 0 2 0 1 - - 0.0
18/08:30am 27.4 32.7 23.0 77 3.0 CALM 0 0 0 0 - - 0.0
18/08:00am 25.3 30.6 23.0 87 1.6 CALM 0 0 0 0 - - 0.0
18/07:30am 22.2 26.5 21.2 94 0.7 CALM 0 0 0 0 - - 0.0
18/07:00am 21.1 25.0 20.3 95 0.5 CALM 0 0 0 0 - - 0.0
18/06:30am 21.2 24.9 20.0 93 0.8 CALM 0 0 0 0 - - 0.0
18/06:00am 21.4 25.2 20.2 93 0.8 CALM 0 0 0 0 - - 0.0
18/05:30am 21.5 25.4 20.3 93 0.8 CALM 0 0 0 0 - - 0.0
18/05:00am 22.0 26.1 20.8 93 0.8 CALM 0 0 0 0 - - 0.0
18/04:30am 22.1 26.1 20.6 91 1.0 CALM 0 0 0 0 - - 0.0
18/04:00am 22.3 26.5 20.9 92 0.9 CALM 0 0 0 0 - - 0.0
18/03:30am 22.4 26.6 21.0 92 0.9 CALM 0 0 0 0 - - 0.0
18/03:00am 22.7 27.0 21.2 91 1.0 CALM 0 0 0 0 - - 0.0
18/02:30am 23.1 27.5 21.4 90 1.1 CALM 0 0 0 0 - - 0.0
18/02:00am 23.3 27.6 21.2 88 1.4 CALM 0 0 0 0 - - 0.0
18/01:30am 23.4 27.8 21.3 88 1.4 CALM 0 0 0 0 - - 0.0
18/01:00am 23.8 28.3 21.5 87 1.5 CALM 0 0 0 0 - - 0.0
18/12:30am 24.0 28.5 21.5 86 1.7 CALM 0 0 0 0 - - 0.0
18/12:00am 24.2 28.6 21.3 84 1.9 CALM 0 0 0 0 - - 0.0
 
Date/Time
CST
Temp
°C
App
Temp
°C
Dew
Point
°C
Rel
Hum
%
Delta-T
°C
Wind Press
QNH
hPa
Press
MSL
hPa
Rain since
9am
mm
Dir  Spd
km/h
Gust
km/h
Spd
kts
Gust
kts
17/11:30pm 24.4 28.8 21.3 83 2.0 CALM 0 0 0 0 - - 0.0
17/11:00pm 24.5 28.8 21.2 82 2.2 CALM 0 0 0 0 - - 0.0
17/10:30pm 25.2 29.6 21.3 79 2.6 CALM 0 0 0 0 - - 0.0
17/10:00pm 25.8 30.1 21.2 76 3.0 CALM 0 4 0 2 - - 0.0
17/09:30pm 26.2 30.0 21.0 73 3.4 WSW 2 7 1 4 - - 0.0
17/09:00pm 26.7 30.3 20.5 69 4.1 W 2 2 1 1 - - 0.0
17/08:30pm 27.3 30.8 20.4 66 4.5 W 2 4 1 2 - - 0.0
17/08:00pm 27.9 30.8 19.9 61 5.2 W 4 6 2 3 - - 0.0
17/07:30pm 28.5 31.1 20.0 60 5.6 WNW 6 9 3 5 - - 0.0
17/07:00pm 28.9 31.8 20.6 61 5.5 WNW 6 13 3 7 - - 0.0
17/06:30pm 29.5 32.3 20.9 60 5.7 WNW 7 13 4 7 - - 0.0
17/06:00pm 30.4 32.8 20.9 57 6.3 WNW 9 19 5 10 - - 0.0
17/05:30pm 31.8 33.9 20.1 50 7.8 NW 9 19 5 10 - - 0.0
17/05:29pm 32.2 34.3 20.1 48 8.0 NW 9 19 5 10 - - 0.0
17/05:00pm 37.5 34.5 2.1 11 18.4 E 7 15 4 8 - - 0.0
17/04:30pm 37.2 33.6 3.1 12 18.0 SE 11 20 6 11 - - 0.0
17/04:00pm 37.4 34.8 4.4 13 17.7 ENE 7 19 4 10 - - 0.0
17/03:30pm 36.4 34.3 6.6 16 16.5 ESE 7 20 4 11 - - 0.0
17/03:00pm 36.7 33.7 5.9 15 16.9 ESE 11 22 6 12 - - 0.0
17/02:30pm 36.6 33.7 6.7 16 16.6 SE 11 26 6 14 - - 0.0
17/02:00pm 37.2 34.8 7.2 16 16.8 ESE 9 20 5 11 - - 0.0
17/01:30pm 35.9 33.7 7.9 18 15.8 ESE 9 24 5 13 - - 0.0
17/01:00pm 35.5 32.6 8.3 19 15.4 E 13 30 7 16 - - 0.0
17/12:30pm 35.0 33.2 10.8 23 14.2 ESE 11 26 6 14 - - 0.0
17/12:00pm 34.1 31.8 11.9 26 13.2 ESE 15 28 8 15 - - 0.0
17/11:30am 33.0 31.8 14.1 32 11.6 ESE 13 22 7 12 - - 0.0
17/11:00am 32.9 32.8 15.0 34 11.1 E 9 19 5 10 - - 0.0
17/10:30am 31.7 31.5 15.6 37 10.0 ESE 11 20 6 11 - - 0.0
17/10:00am 30.6 32.5 19.0 50 7.5 ESE 7 15 4 8 - - 0.0
17/09:30am 29.7 32.5 20.5 57 6.1 ESE 6 9 3 5 - - 0.0
17/09:00am 28.8 32.0 20.5 61 5.5 SE 4 9 2 5 - - 0.0
17/08:30am 27.4 31.3 21.9 72 3.7 SSE 4 7 2 4 - - 0.0
17/08:00am 25.5 28.9 21.6 79 2.6 SE 6 9 3 5 - - 0.0
17/07:30am 23.6 27.7 21.5 88 1.4 SSE 2 4 1 2 - - 0.0
17/07:00am 22.5 26.3 21.0 91 1.0 SSE 2 6 1 3 - - 0.0
17/06:30am 22.9 26.7 21.0 89 1.2 SSE 2 6 1 3 - - 0.0
17/06:00am 23.1 27.5 21.4 90 1.1 CALM 0 2 0 1 - - 0.0
17/05:30am 22.9 27.2 21.2 90 1.1 CALM 0 0 0 0 - - 0.0
17/05:00am 23.3 27.6 21.2 88 1.4 CALM 0 0 0 0 - - 0.0
17/04:30am 23.5 27.9 21.4 88 1.4 CALM 0 0 0 0 - - 0.0
17/04:00am 23.6 27.9 21.1 86 1.6 CALM 0 0 0 0 - - 0.0
17/03:30am 23.9 28.2 21.2 85 1.8 CALM 0 0 0 0 - - 0.0
17/03:00am 24.4 29.0 21.7 85 1.8 CALM 0 0 0 0 - - 0.0
17/02:30am 24.2 28.4 20.9 82 2.2 CALM 0 0 0 0 - - 0.0
17/02:00am 24.6 28.9 21.1 81 2.3 CALM 0 0 0 0 - - 0.0
17/01:30am 24.9 29.1 21.0 79 2.6 CALM 0 0 0 0 - - 0.0
17/01:00am 25.0 29.2 20.9 78 2.7 CALM 0 0 0 0 - - 0.0
17/12:30am 25.6 30.0 21.3 77 2.8 CALM 0 0 0 0 - - 0.0
17/12:00am 25.7 29.8 20.7 74 3.3 CALM 0 0 0 0 - - 0.0
 
Date/Time
CST
Temp
°C
App
Temp
°C
Dew
Point
°C
Rel
Hum
%
Delta-T
°C
Wind Press
QNH
hPa
Press
MSL
hPa
Rain since
9am
mm
Dir  Spd
km/h
Gust
km/h
Spd
kts
Gust
kts
16/11:30pm 25.8 29.6 20.1 71 3.7 CALM 0 0 0 0 - - 0.0
16/11:00pm 26.3 30.1 20.2 69 4.0 CALM 0 0 0 0 - - 0.0
16/10:30pm 26.9 30.6 20.0 66 4.5 CALM 0 0 0 0 - - 0.0
16/10:00pm 27.6 31.3 19.9 63 5.0 CALM 0 0 0 0 - - 0.0
16/09:30pm 27.9 31.5 19.7 61 5.3 CALM 0 4 0 2 - - 0.0
16/09:00pm 27.4 30.5 19.5 62 5.1 WNW 2 4 1 2 - - 0.0
16/08:30pm 27.9 31.5 19.7 61 5.3 CALM 0 0 0 0 - - 0.0

Other Formats:

Comma delimited format used in spreadsheet applications
http://www.bom.gov.au/fwo/IDD60801/IDD60801.94161.axf

JavaScript Object Notation format (JSON) in row-major order
http://www.bom.gov.au/fwo/IDD60801/IDD60801.94161.json